createdAt,value
2018-04-28T00:00:10.229Z,3.90
2018-04-28T00:02:37.753Z,2.53
2018-04-28T00:05:05.303Z,3.10
2018-04-28T00:07:32.838Z,3.43
2018-04-28T00:10:00.349Z,2.90
2018-04-28T00:12:27.880Z,3.27
2018-04-28T00:14:55.386Z,5.13
2018-04-28T00:17:23.381Z,2.30
2018-04-28T00:19:54.297Z,2.50
2018-04-28T00:22:23.457Z,4.40
2018-04-28T00:24:50.964Z,3.63
2018-04-28T00:27:21.228Z,4.77
2018-04-28T00:29:49.645Z,2.67
2018-04-28T00:32:17.146Z,2.40
2018-04-28T00:34:54.566Z,2.30
2018-04-28T00:37:22.077Z,3.37
2018-04-28T00:39:57.294Z,2.53
2018-04-28T00:42:30.712Z,5.10
2018-04-28T00:44:58.242Z,3.43
2018-04-28T00:47:25.747Z,7.20
2018-04-28T00:49:57.936Z,4.93
2018-04-28T00:52:27.137Z,3.03
2018-04-28T00:55:22.680Z,2.43
2018-04-28T00:58:00.062Z,4.63
2018-04-28T01:00:51.061Z,3.23
2018-04-28T01:03:23.366Z,6.47
2018-04-28T01:05:50.890Z,2.77
2018-04-28T01:08:26.733Z,2.37
2018-04-28T01:10:57.005Z,3.03
2018-04-28T01:13:24.519Z,2.30
2018-04-28T01:15:52.050Z,4.10
2018-04-28T01:18:24.630Z,6.23
2018-04-28T01:21:07.142Z,2.63
2018-04-28T01:23:39.489Z,3.83
2018-04-28T01:26:27.849Z,2.50
2018-04-28T01:28:56.214Z,5.87
2018-04-28T01:31:23.750Z,2.97
2018-04-28T01:33:58.628Z,4.23
2018-04-28T01:36:52.746Z,4.50
2018-04-28T01:39:45.038Z,2.47
2018-04-28T01:45:08.305Z,4.03
2018-04-28T01:47:53.658Z,5.70
2018-04-28T01:50:21.093Z,2.73
2018-04-28T01:52:48.698Z,5.10
2018-04-28T01:55:17.145Z,3.97
2018-04-28T01:57:50.613Z,4.17
2018-04-28T02:03:39.355Z,2.97
2018-04-28T02:06:13.866Z,5.20
2018-04-28T02:08:42.135Z,3.27
2018-04-28T02:11:27.519Z,3.20
2018-04-28T02:14:01.642Z,4.63
2018-04-28T02:16:30.973Z,3.70
2018-04-28T02:19:01.321Z,2.73
2018-04-28T02:21:40.417Z,2.63
2018-04-28T02:27:17.387Z,2.90
2018-04-28T02:30:01.684Z,5.53
2018-04-28T02:32:29.927Z,2.60
2018-04-28T02:35:06.557Z,4.97
2018-04-28T02:37:44.696Z,3.03
2018-04-28T02:43:14.544Z,3.33
2018-04-28T02:45:47.968Z,2.40
2018-04-28T02:48:51.089Z,2.77
2018-04-28T02:51:30.289Z,5.63
2018-04-28T02:54:04.431Z,5.67
2018-04-28T02:56:40.735Z,2.60
2018-04-28T02:59:08.650Z,3.57
2018-04-28T03:04:39.533Z,4.60
2018-04-28T03:07:36.645Z,3.40
2018-04-28T03:10:29.685Z,2.80
2018-04-28T03:12:57.332Z,2.80
2018-04-28T03:15:24.999Z,7.87
2018-04-28T03:17:54.035Z,2.93
2018-04-28T03:20:23.116Z,4.50
2018-04-28T03:22:54.165Z,3.63
2018-04-28T03:28:32.018Z,2.63
2018-04-28T03:31:07.297Z,6.70
2018-04-28T03:33:49.870Z,4.20
2018-04-28T03:36:20.337Z,3.43
2018-04-28T03:41:56.656Z,3.90
2018-04-28T03:44:36.837Z,3.00
2018-04-28T03:47:07.759Z,2.77
2018-04-28T03:49:36.117Z,3.40
2018-04-28T03:52:13.341Z,3.17
2018-04-28T03:54:40.880Z,5.10
2018-04-28T03:57:27.889Z,3.50
2018-04-28T04:00:07.189Z,3.27
2018-04-28T04:02:46.401Z,4.37
2018-04-28T04:05:33.561Z,5.60
2018-04-28T04:08:16.450Z,3.90
2018-04-28T04:11:03.393Z,5.37
2018-04-28T04:13:36.669Z,2.30
2018-04-28T04:16:11.714Z,3.57
2018-04-28T04:18:43.637Z,3.00
2018-04-28T04:21:34.376Z,3.20
2018-04-28T04:24:07.629Z,2.70
2018-04-28T04:29:42.725Z,2.60
2018-04-28T04:32:11.293Z,2.60
2018-04-28T04:34:54.418Z,2.83
2018-04-28T04:37:24.789Z,2.80
2018-04-28T04:39:53.216Z,4.40
2018-04-28T04:42:20.729Z,4.77
2018-04-28T04:44:50.801Z,4.23
2018-04-28T04:53:32.168Z,4.70
2018-04-28T04:56:10.744Z,3.43
2018-04-28T04:58:58.905Z,3.20
2018-04-28T05:01:33.377Z,2.63
2018-04-28T05:04:08.741Z,4.40
2018-04-28T05:09:38.029Z,3.67
2018-04-28T05:12:17.450Z,4.17
2018-04-28T05:14:54.720Z,2.67
2018-04-28T05:17:35.897Z,3.73
2018-04-28T05:20:12.320Z,3.47
2018-04-28T05:22:43.709Z,3.83
2018-04-28T05:25:32.739Z,3.17
2018-04-28T05:28:09.397Z,3.00
2018-04-28T05:30:38.430Z,5.77
2018-04-28T05:33:17.833Z,3.30
2018-04-28T05:38:56.317Z,3.97
2018-04-28T05:41:35.813Z,3.50
2018-04-28T05:44:12.742Z,4.03
2018-04-28T05:46:59.648Z,2.13
2018-04-28T05:49:45.708Z,2.63
2018-04-28T05:52:29.745Z,5.50
2018-04-28T05:55:13.102Z,2.20
2018-04-28T05:58:01.465Z,2.63
2018-04-28T06:00:32.400Z,2.93
2018-04-28T06:03:11.980Z,1.62
2018-04-28T06:05:51.313Z,4.07
2018-04-28T06:08:31.672Z,3.33
2018-04-28T06:11:20.022Z,3.92
2018-04-28T06:13:57.310Z,2.62
2018-04-28T06:16:28.865Z,3.05
2018-04-28T06:19:00.080Z,3.90
2018-04-28T06:21:27.533Z,2.85
2018-04-28T06:23:55.456Z,3.50
2018-04-28T06:26:22.960Z,4.82
2018-04-28T06:28:50.469Z,2.53
2018-04-28T06:31:18.002Z,2.70
2018-04-28T06:33:45.509Z,1.30
2018-04-28T06:36:13.441Z,2.55
2018-04-28T06:38:40.952Z,6.00
2018-04-28T06:41:08.533Z,2.20
2018-04-28T06:43:36.049Z,4.85
2018-04-28T06:46:03.961Z,1.23
2018-04-28T06:48:31.566Z,3.33
2018-04-28T06:50:59.083Z,3.50
2018-04-28T06:53:26.557Z,1.30
2018-04-28T06:55:54.077Z,5.82
2018-04-28T06:58:21.609Z,1.45
2018-04-28T07:00:49.161Z,1.33
2018-04-28T07:03:16.661Z,2.10
2018-04-28T07:05:44.389Z,1.62
2018-04-28T07:08:11.891Z,2.55
2018-04-28T07:10:39.456Z,3.58
2018-04-28T07:13:06.941Z,2.85
2018-04-28T07:15:34.506Z,3.30
2018-04-28T07:18:02.037Z,1.48
2018-04-28T07:20:29.540Z,2.08
2018-04-28T07:22:57.074Z,1.95
2018-04-28T07:25:24.590Z,1.40
2018-04-28T07:27:52.505Z,1.83
2018-04-28T07:30:20.021Z,2.95
2018-04-28T07:32:47.933Z,1.10
2018-04-28T07:35:15.492Z,3.00
2018-04-28T07:37:43.005Z,2.20
2018-04-28T07:40:10.917Z,2.83
2018-04-28T07:42:38.445Z,3.08
2018-04-28T07:45:05.962Z,1.87
2018-04-28T07:47:33.493Z,3.20
2018-04-28T07:50:01.022Z,2.97
2018-04-28T07:52:28.568Z,1.30
2018-04-28T07:54:56.073Z,2.85
2018-04-28T07:57:23.605Z,0.98
2018-04-28T07:59:51.113Z,1.83
2018-04-28T08:02:19.029Z,3.80
2018-04-28T08:04:46.537Z,3.75
2018-04-28T08:07:14.213Z,2.00
2018-04-28T08:09:41.709Z,2.17
2018-04-28T08:12:09.217Z,2.92
2018-04-28T08:14:36.785Z,3.30
2018-04-28T08:17:04.289Z,1.33
2018-04-28T08:19:31.812Z,5.25
2018-04-28T08:21:59.338Z,5.32
2018-04-28T08:24:27.017Z,1.25
2018-04-28T08:26:54.526Z,0.68
2018-04-28T08:29:22.453Z,3.12
2018-04-28T08:31:49.957Z,1.90
2018-04-28T08:34:17.498Z,3.62
2018-04-28T08:36:45.001Z,3.22
2018-04-28T08:39:12.615Z,5.43
2018-04-28T08:41:40.120Z,1.33
2018-04-28T08:44:07.662Z,1.20
2018-04-28T08:46:35.160Z,1.17
2018-04-28T08:49:02.759Z,4.20
2018-04-28T08:51:30.272Z,1.75
2018-04-28T08:53:57.885Z,2.37
2018-04-28T08:56:25.393Z,2.97
2018-04-28T08:58:52.917Z,1.40
2018-04-28T09:01:21.389Z,2.28
2018-04-28T09:03:48.986Z,1.48
2018-04-28T09:06:16.603Z,1.95
2018-04-28T09:08:44.261Z,1.75
2018-04-28T09:11:11.784Z,2.08
2018-04-28T09:13:39.686Z,2.42
2018-04-28T09:16:07.246Z,1.90
2018-04-28T09:18:34.745Z,4.22
2018-04-28T09:21:02.677Z,4.35
2018-04-28T09:23:30.171Z,4.80
2018-04-28T09:25:57.696Z,2.62
2018-04-28T09:28:25.312Z,4.75
2018-04-28T09:30:52.846Z,2.58
2018-04-28T09:33:20.744Z,2.65
2018-04-28T09:35:48.272Z,2.35
2018-04-28T09:38:15.779Z,2.15
2018-04-28T09:40:43.320Z,1.42
2018-04-28T09:43:10.826Z,2.50
2018-04-28T09:45:38.350Z,3.37
2018-04-28T09:48:05.864Z,3.33
2018-04-28T09:50:33.393Z,1.23
2018-04-28T09:53:00.892Z,1.60
2018-04-28T09:55:28.417Z,4.75
2018-04-28T09:58:07.780Z,1.80
2018-04-28T10:00:35.308Z,2.22
2018-04-28T10:03:05.707Z,2.15
2018-04-28T10:05:33.264Z,1.10
2018-04-28T10:08:00.782Z,3.87
2018-04-28T10:10:28.302Z,2.45
2018-04-28T10:12:55.837Z,3.78
2018-04-28T10:15:23.333Z,2.22
2018-04-28T10:17:50.854Z,1.30
2018-04-28T10:20:18.830Z,3.53
2018-04-28T10:22:46.372Z,1.52
2018-04-28T10:25:14.279Z,0.88
2018-04-28T10:27:41.807Z,1.65
2018-04-28T10:30:09.317Z,0.90
2018-04-28T10:32:36.859Z,2.83
2018-04-28T10:35:04.363Z,4.95
2018-04-28T10:37:31.973Z,3.15
2018-04-28T10:39:59.481Z,3.70
2018-04-28T10:42:27.000Z,3.30
2018-04-28T10:44:54.621Z,2.20
2018-04-28T10:47:22.180Z,2.60
2018-04-28T10:49:49.681Z,1.83
2018-04-28T10:52:17.302Z,3.03
2018-04-28T10:54:44.838Z,2.15
2018-04-28T10:57:12.365Z,3.90
2018-04-28T10:59:40.262Z,1.90
2018-04-28T11:02:07.793Z,1.48
2018-04-28T11:04:35.309Z,2.92
2018-04-28T11:07:02.809Z,3.28
2018-04-28T11:09:30.392Z,2.35
2018-04-28T11:11:58.052Z,2.90
2018-04-28T11:14:25.584Z,1.45
2018-04-28T11:16:53.085Z,1.65
2018-04-28T11:19:20.613Z,3.87
2018-04-28T11:21:48.259Z,5.40
2018-04-28T11:24:15.935Z,3.12
2018-04-28T11:26:43.596Z,1.48
2018-04-28T11:29:11.113Z,2.15
2018-04-28T11:31:39.021Z,1.30
2018-04-28T11:34:06.541Z,2.08
2018-04-28T11:36:34.041Z,2.40
2018-04-28T11:39:01.562Z,2.78
2018-04-28T11:41:29.101Z,1.92
2018-04-28T11:43:56.641Z,3.37
2018-04-28T11:46:24.233Z,3.15
2018-04-28T11:48:51.768Z,4.85
2018-04-28T11:51:19.666Z,3.58
2018-04-28T11:53:47.198Z,1.10
2018-04-28T11:56:14.696Z,4.40
2018-04-28T11:58:42.209Z,2.28
2018-04-28T12:01:09.760Z,1.40
2018-04-28T12:03:37.270Z,3.72
2018-04-28T12:06:04.795Z,2.25
2018-04-28T12:08:32.288Z,1.30
2018-04-28T12:54:40.522Z,4.53
2018-04-28T12:57:08.041Z,3.22
2018-04-28T12:59:35.549Z,1.20
2018-04-28T13:02:03.161Z,3.28
2018-04-28T13:04:30.666Z,2.05
2018-04-28T13:06:58.185Z,4.37
2018-04-28T13:09:25.683Z,1.48
2018-04-28T13:11:53.381Z,1.50
2018-04-28T13:14:20.897Z,1.95
2018-04-28T13:16:48.417Z,3.90
2018-04-28T13:19:15.953Z,3.05
2018-04-28T13:21:43.461Z,1.30
2018-04-28T13:24:11.069Z,4.68
2018-04-28T13:26:38.583Z,6.45
2018-04-28T13:29:06.580Z,1.83
2018-04-28T13:31:34.022Z,1.75
2018-04-28T13:34:01.715Z,4.25
2018-04-28T13:36:29.236Z,3.37
2018-04-28T13:38:56.802Z,4.35
2018-04-28T13:41:24.319Z,1.45
2018-04-28T13:43:51.849Z,2.05
2018-04-28T13:46:19.344Z,3.47
2018-04-28T13:48:46.881Z,3.50
2018-04-28T13:51:14.505Z,3.12
2018-04-28T13:53:42.107Z,2.62
2018-04-28T13:56:09.681Z,1.58
2018-04-28T13:58:37.133Z,3.55
2018-04-28T14:01:05.053Z,1.52
2018-04-28T14:03:32.569Z,2.83
2018-04-28T14:06:00.247Z,2.53
2018-04-28T14:08:27.769Z,1.67
2018-04-28T14:10:55.687Z,3.33
2018-04-28T14:13:23.323Z,3.87
2018-04-28T14:15:50.878Z,3.65
2018-04-28T14:18:18.377Z,4.40
2018-04-28T14:20:45.924Z,3.60
2018-04-28T14:23:13.426Z,4.22
2018-04-28T14:25:40.953Z,2.17
2018-04-28T14:28:08.469Z,3.08
2018-04-28T14:30:36.001Z,3.20
2018-04-28T14:33:03.520Z,3.00
2018-04-28T14:35:31.046Z,4.47
2018-04-28T14:37:58.549Z,2.97
2018-04-28T14:40:26.065Z,3.75
2018-04-28T14:42:53.565Z,3.33
2018-04-28T14:45:21.097Z,2.78
2018-04-28T14:47:48.608Z,4.00
2018-04-28T14:50:16.130Z,1.77
2018-04-28T14:52:44.180Z,3.30
2018-04-28T14:55:11.660Z,3.90
2018-04-28T14:57:39.192Z,4.12
2018-04-28T15:00:06.717Z,1.80
2018-04-28T15:02:34.234Z,4.22
2018-04-28T15:05:01.745Z,2.67
2018-04-28T15:07:29.265Z,2.62
2018-04-28T15:09:56.818Z,1.92
2018-04-28T15:12:24.692Z,3.40
2018-04-28T15:14:52.247Z,3.83
2018-04-28T15:17:19.769Z,3.40
2018-04-28T15:19:47.289Z,1.35
2018-04-28T15:22:14.990Z,6.18
2018-04-28T15:24:42.501Z,1.60
2018-04-28T15:27:10.037Z,4.50
2018-04-28T15:29:37.543Z,5.30
2018-04-28T15:32:05.070Z,3.80
2018-04-28T15:34:32.563Z,4.07
2018-04-28T15:37:00.114Z,1.30
2018-04-28T15:39:27.610Z,3.22
2018-04-28T15:41:55.257Z,3.75
2018-04-28T15:44:22.765Z,2.60
2018-04-28T15:46:50.676Z,2.60
2018-04-28T15:49:18.433Z,11.45
2018-04-28T15:51:45.957Z,3.30
2018-04-28T15:54:13.473Z,4.00
2018-04-28T15:56:40.975Z,1.50
2018-04-28T15:59:08.493Z,2.17
2018-04-28T16:01:35.997Z,5.37
2018-04-28T16:04:03.508Z,4.43
2018-04-28T16:06:31.020Z,3.58
2018-04-28T16:08:58.556Z,4.72
2018-04-28T16:11:26.061Z,3.70
2018-04-28T16:13:53.590Z,1.80
2018-04-28T16:16:21.104Z,1.75
2018-04-28T16:18:49.015Z,3.33
2018-04-28T16:21:16.665Z,3.75
2018-04-28T16:23:44.168Z,3.95
2018-04-28T16:26:11.695Z,3.97
2018-04-28T16:28:39.209Z,4.05
2018-04-28T16:31:06.773Z,4.62
2018-04-28T16:33:34.363Z,2.42
2018-04-28T16:36:01.898Z,2.95
2018-04-28T16:38:29.400Z,2.97
2018-04-28T16:40:56.937Z,3.37
2018-04-28T16:43:24.440Z,5.32
2018-04-28T16:45:51.968Z,3.45
2018-04-28T16:48:19.483Z,6.90
2018-04-28T16:50:47.102Z,3.60
2018-04-28T16:53:14.546Z,3.28
2018-04-28T16:55:42.465Z,3.17
2018-04-28T16:58:09.981Z,4.97
2018-04-28T17:00:37.509Z,2.70
2018-04-28T17:03:05.121Z,3.97
2018-04-28T17:05:32.777Z,3.83
2018-04-28T17:08:00.422Z,5.15
2018-04-28T17:10:28.083Z,4.60
2018-04-28T17:12:55.592Z,2.92
2018-04-28T17:15:23.196Z,2.42
2018-04-28T17:17:54.507Z,6.68
2018-04-28T17:20:22.149Z,7.20
2018-04-28T17:22:49.670Z,2.33
2018-04-28T17:25:17.365Z,1.70
2018-04-28T17:27:44.888Z,3.92
2018-04-28T17:30:12.405Z,2.17
2018-04-28T17:32:39.934Z,2.33
2018-04-28T17:35:07.470Z,4.37
2018-04-28T17:37:35.215Z,5.75
2018-04-28T17:40:02.717Z,1.80
2018-04-28T17:42:30.308Z,2.40
2018-04-28T17:44:57.805Z,2.30
2018-04-28T17:47:25.331Z,2.92
2018-04-28T17:49:52.833Z,3.97
2018-04-28T17:52:20.547Z,3.28
2018-04-28T17:54:48.210Z,4.15
2018-04-28T17:57:15.738Z,3.58
2018-04-28T17:59:43.241Z,3.58
2018-04-28T18:02:10.761Z,2.53
2018-04-28T18:04:38.291Z,3.83
2018-04-28T18:07:06.189Z,3.22
2018-04-28T18:09:33.717Z,3.17
2018-04-28T18:12:01.233Z,2.35
2018-04-28T18:14:28.885Z,3.12
2018-04-28T18:16:56.389Z,2.17
2018-04-28T18:19:24.317Z,6.40
2018-04-28T18:21:51.821Z,4.78
2018-04-28T18:24:19.505Z,5.53
2018-04-28T18:26:47.145Z,1.77
2018-04-28T18:29:14.665Z,4.25
2018-04-28T18:31:42.571Z,6.57
2018-04-28T18:34:10.089Z,4.50
2018-04-28T18:36:37.791Z,3.78
2018-04-28T18:39:05.309Z,3.67
2018-04-28T18:41:33.206Z,4.57
2018-04-28T18:44:00.733Z,2.58
2018-04-28T18:46:28.286Z,6.70
2018-04-28T18:48:55.888Z,6.80
2018-04-28T18:51:23.508Z,3.15
2018-04-28T18:53:51.043Z,2.62
2018-04-28T18:56:18.543Z,3.58
2018-04-28T18:58:46.089Z,3.47
2018-04-28T19:01:13.592Z,3.40
2018-04-28T19:03:41.093Z,4.28
2018-04-28T19:06:08.616Z,5.25
2018-04-28T19:08:36.128Z,2.45
2018-04-28T19:11:03.667Z,6.68
2018-04-28T19:13:31.173Z,4.07
2018-04-28T19:15:58.881Z,4.75
2018-04-28T19:18:26.397Z,2.92
2018-04-28T19:20:53.943Z,4.72
2018-04-28T19:23:21.872Z,4.97
2018-04-28T19:25:49.429Z,3.37
2018-04-28T19:28:16.929Z,8.38
2018-04-28T19:30:44.452Z,3.28
2018-04-28T19:33:11.969Z,3.85
2018-04-28T19:35:39.901Z,4.90
2018-04-28T19:38:07.594Z,5.45
2018-04-28T19:40:35.121Z,4.35
2018-04-28T19:43:02.626Z,5.68
2018-04-28T19:45:30.187Z,4.97
2018-04-28T19:47:57.836Z,3.83
2018-04-28T19:50:25.363Z,2.87
2018-04-28T19:52:52.865Z,3.75
2018-04-28T19:55:20.381Z,4.03
2018-04-28T19:57:47.885Z,4.72
2018-04-28T20:00:15.484Z,3.45
2018-04-28T20:02:42.928Z,3.87
2018-04-28T20:05:10.824Z,3.00
2018-04-28T20:07:38.362Z,6.60
2018-04-28T20:10:06.271Z,3.97
2018-04-28T20:12:33.808Z,5.45
2018-04-28T20:15:01.308Z,4.37
2018-04-28T20:17:28.828Z,3.58
2018-04-28T20:19:56.384Z,3.58
2018-04-28T20:25:41.273Z,11.30
2018-04-28T20:28:08.801Z,11.02
2018-04-28T20:30:36.310Z,22.00
2018-04-28T20:33:03.849Z,33.63
2018-04-28T20:35:31.357Z,34.22
2018-04-28T20:37:59.286Z,19.58
2018-04-28T20:40:26.785Z,16.20
2018-04-28T20:42:54.492Z,12.50
2018-04-28T20:45:21.990Z,11.48
2018-04-28T20:47:49.929Z,6.10
2018-04-28T20:50:17.432Z,7.25
2018-04-28T20:52:44.973Z,7.03
2018-04-28T20:55:12.477Z,7.10
2018-04-28T20:57:40.009Z,9.90
2018-04-28T21:00:07.526Z,9.10
2018-04-28T21:02:35.465Z,9.25
2018-04-28T21:05:02.970Z,12.88
2018-04-28T21:07:30.489Z,7.87
2018-04-28T21:09:58.009Z,8.68
2018-04-28T21:12:25.541Z,5.28
2018-04-28T21:14:53.056Z,5.15
2018-04-28T21:17:20.562Z,5.47
2018-04-28T21:19:48.082Z,5.80
2018-04-28T21:22:15.589Z,7.12
2018-04-28T21:24:43.119Z,4.70
2018-04-28T21:27:10.621Z,6.25
2018-04-28T21:29:38.142Z,6.60
2018-04-28T21:32:05.799Z,12.00
2018-04-28T21:34:33.333Z,7.85
2018-04-28T21:37:00.851Z,5.70
2018-04-28T21:39:28.373Z,6.82
2018-04-28T21:41:55.877Z,5.93
2018-04-28T21:44:23.802Z,7.70
2018-04-28T21:46:51.301Z,5.37
2018-04-28T21:49:18.848Z,7.68
2018-04-28T21:51:46.861Z,6.62
2018-04-28T21:54:14.382Z,7.03
2018-04-28T21:56:42.388Z,11.02
2018-04-28T21:59:09.911Z,11.38
2018-04-28T22:01:37.820Z,6.70
2018-04-28T22:04:05.565Z,8.68
2018-04-28T22:06:33.072Z,8.25
2018-04-28T22:09:00.662Z,7.78
2018-04-28T22:11:28.169Z,10.63
2018-04-28T22:13:55.678Z,7.10
2018-04-28T22:16:23.210Z,7.03
2018-04-28T22:18:50.888Z,6.72
2018-04-28T22:21:18.401Z,6.40
2018-04-28T22:23:45.901Z,5.45
2018-04-28T22:26:13.457Z,8.70
2018-04-28T22:28:41.026Z,6.55
2018-04-28T22:31:08.568Z,6.15
2018-04-28T22:33:36.230Z,7.68
2018-04-28T22:36:03.761Z,5.25
2018-04-28T22:38:31.659Z,4.15
2018-04-28T22:40:59.223Z,4.93
2018-04-28T22:43:26.726Z,4.00
2018-04-28T22:45:54.243Z,5.05
2018-04-28T22:48:21.753Z,6.93
2018-04-28T22:50:49.425Z,5.87
2018-04-28T22:53:16.929Z,6.78
2018-04-28T22:55:44.445Z,6.13
2018-04-28T22:58:12.013Z,7.20
2018-04-28T23:00:41.477Z,5.20
2018-04-28T23:03:08.974Z,7.47
2018-04-28T23:05:36.469Z,5.73
2018-04-28T23:08:04.061Z,6.62
2018-04-28T23:10:31.573Z,6.55
2018-04-28T23:12:59.096Z,6.47
2018-04-28T23:15:26.629Z,5.57
2018-04-28T23:17:54.162Z,6.50
2018-04-28T23:20:22.059Z,4.60
2018-04-28T23:22:49.619Z,4.18
2018-04-28T23:25:17.273Z,8.30
2018-04-28T23:27:44.985Z,4.68
2018-04-28T23:30:12.493Z,6.32
2018-04-28T23:32:40.026Z,5.93
2018-04-28T23:35:07.516Z,7.80
2018-04-28T23:37:35.139Z,5.13
2018-04-28T23:40:02.594Z,4.57
2018-04-28T23:42:30.117Z,3.70
2018-04-28T23:44:57.613Z,4.80
2018-04-28T23:47:25.137Z,3.10
2018-04-28T23:49:52.641Z,2.50
2018-04-28T23:52:20.193Z,4.67
2018-04-28T23:54:47.694Z,6.00
2018-04-28T23:57:15.211Z,3.60
2018-04-28T23:59:42.849Z,3.53
